Airfield :







YOU CAN JOIN US ON...

 
LOGIN :

Register | Disclaimer

   EN    FR    IT 

 









Legend :    VFR   Marginal VFR   IFR   Intensive IFR   Very Intensive IFR
Visi :
Ceiling :
>= 8 km
>= 3000ft
5 to 8 km
1000 to 3000 ft
1500m to 5 km
500 to 1000 ft
800 to 1500m
200 to 500 ft
< 800m
< 200 ft
Symbols :   Thunderstorms  Fog  Heavy snow  Heavy precipitations  Wind > 20 kt






- Airport Elevation : 29 ft
- IATA code : PSE


TJPS - Mercedita

METAR N/A
TAF TJPS
Valid from the 17 at 00:00 until the 18 at 00:00 UTC


162340Z 1700/1724 10008KT P6SM VCSH SCT024 BKN050
FM171300 08010KT P6SM VCSH FEW024 SCT050
FM171500 12015KT P6SM SCT030 BKN050
FM172330 10006KT P6SM FEW030 AMD NOT SKED TIL 170300



MET'MAP, your aeronautical weather chart ! - Copyright ORBIFLY December 2007 - Disclaimer

ORBIFLY MET'MAP TEAM :

Programming & Development : Alexandra Zaïnal
Concept & original design : Baudouin d'Aumeries
Assistance for programming : Marc-Olivier Méhu
Technical & hardware support : Manuel Goepfert

Contact : metmap@orbifly.com




SOURCES & CREDITS :

   NOAA